Time;durP1;ratioP1;P1;durP2;ratioP2;P2;SDS_P1;SDS_P2;PMS_P1;PMS_P2;Temp;Humidity;BMP_temperature;BMP_pressure;BME280_temperature;BME280_humidity;BME280_pressure;Samples;Min_cycle;Max_cycle;Signal;HPM_P1;HPM_P2
2021/01/14 00:00:18;;;;;;;;;;;3.50;99.90;;;;;;5056327;28;20020;-80
2021/01/14 00:05:21;;;;;;;;;;;3.50;99.90;;;;;;5332330;23;19925;-89
2021/01/14 00:07:49;;;;;;;;;;;3.50;99.90;;;;;;5039975;28;19909;-89
2021/01/14 00:10:15;;;;;;;;;;;3.50;99.90;;;;;;5039937;28;19913;-89
2021/01/14 00:15:09;;;;;;;;;;;3.50;99.90;;;;;;5260410;22;20310;-81
2021/01/14 00:17:35;;;;;;;;;;;3.40;99.90;;;;;;5057420;28;20326;-81
2021/01/14 00:20:00;;;;;;;;;;;3.50;99.90;;;;;;5058555;28;19912;-80
2021/01/14 00:22:26;;;;;;;;;;;3.40;99.90;;;;;;5057596;28;19931;-80
2021/01/14 00:24:54;;;;;;;;;;;3.40;99.90;;;;;;5076216;28;19915;-81
2021/01/14 00:27:22;;;;;;;;;;;3.40;99.90;;;;;;5057406;28;19908;-80
2021/01/14 00:29:48;;;;;;;;;;;3.40;99.90;;;;;;5058013;28;19908;-80
2021/01/14 00:32:13;;;;;;;;;;;3.30;99.90;;;;;;5057401;28;19931;-80
2021/01/14 00:34:39;;;;;;;;;;;3.30;99.90;;;;;;5149115;22;19925;-80
2021/01/14 00:39:52;;;;;;;;;;;3.40;99.90;;;;;;5035645;28;19935;-80
2021/01/14 00:42:18;;;;;;;;;;;3.30;99.90;;;;;;5033907;28;19909;-79
2021/01/14 00:44:43;;;;;;;;;;;3.30;99.90;;;;;;5034178;28;20391;-80
2021/01/14 00:47:09;;;;;;;;;;;3.40;99.90;;;;;;5034325;28;19909;-80
2021/01/14 00:49:34;;;;;;;;;;;3.30;99.90;;;;;;5034201;28;20379;-80
2021/01/14 00:52:05;;;;;;;;;;;3.30;99.90;;;;;;5033659;28;19909;-80
2021/01/14 00:54:30;;;;;;;;;;;3.40;99.90;;;;;;5035552;28;19971;-80
2021/01/14 00:56:56;;;;;;;;;;;3.40;99.90;;;;;;5033293;28;20276;-80
2021/01/14 00:59:21;;;;;;;;;;;3.30;99.90;;;;;;5033931;28;20438;-80
2021/01/14 01:01:47;;;;;;;;;;;3.40;99.90;;;;;;5033441;28;19916;-80
2021/01/14 01:04:15;;;;;;;;;;;3.30;99.90;;;;;;5034026;28;19919;-79
2021/01/14 01:06:41;;;;;;;;;;;3.30;99.90;;;;;;5033544;28;19917;-79
2021/01/14 01:09:11;;;;;;;;;;;3.30;99.90;;;;;;5033614;28;19909;-80
2021/01/14 01:11:39;;;;;;;;;;;3.30;99.90;;;;;;5033293;28;19909;-79
2021/01/14 01:14:05;;;;;;;;;;;3.30;99.90;;;;;;5034992;28;19924;-79
2021/01/14 01:16:31;;;;;;;;;;;3.30;99.90;;;;;;5033537;28;19909;-80
2021/01/14 01:18:56;;;;;;;;;;;3.20;99.90;;;;;;5033461;28;20004;-81
2021/01/14 01:21:22;;;;;;;;;;;3.30;99.90;;;;;;5033184;28;19915;-81
2021/01/14 01:23:48;;;;;;;;;;;3.20;99.90;;;;;;5033533;28;19909;-80
2021/01/14 01:26:16;;;;;;;;;;;3.20;99.90;;;;;;5033184;28;19909;-80
2021/01/14 01:28:42;;;;;;;;;;;3.20;99.90;;;;;;5033429;28;20326;-80
2021/01/14 01:31:10;;;;;;;;;;;3.20;99.90;;;;;;5033063;28;20007;-81
2021/01/14 01:33:36;;;;;;;;;;;3.20;99.90;;;;;;5032970;28;19928;-79
2021/01/14 01:36:02;;;;;;;;;;;3.20;99.90;;;;;;5032524;28;19917;-80
2021/01/14 01:38:28;;;;;;;;;;;3.20;99.90;;;;;;5032323;28;20374;-80
2021/01/14 01:40:59;;;;;;;;;;;3.20;99.90;;;;;;5032159;28;19929;-82
2021/01/14 01:43:27;;;;;;;;;;;3.20;99.90;;;;;;5033462;28;20380;-79
2021/01/14 01:45:53;;;;;;;;;;;3.10;99.90;;;;;;5032665;28;19913;-83
2021/01/14 01:48:20;;;;;;;;;;;3.10;99.90;;;;;;5032844;28;19916;-80
2021/01/14 01:50:45;;;;;;;;;;;3.10;99.90;;;;;;5032966;28;20000;-81
2021/01/14 01:53:11;;;;;;;;;;;3.10;99.90;;;;;;5032512;28;19971;-81
2021/01/14 01:55:37;;;;;;;;;;;3.10;99.90;;;;;;5032443;28;19917;-81
2021/01/14 01:58:03;;;;;;;;;;;3.10;99.90;;;;;;5032338;28;19940;-80
2021/01/14 02:00:29;;;;;;;;;;;3.10;99.90;;;;;;5032630;28;19913;-80
2021/01/14 02:02:54;;;;;;;;;;;3.10;99.90;;;;;;5032303;28;19912;-82
2021/01/14 02:05:20;;;;;;;;;;;3.10;99.90;;;;;;5032538;28;20307;-80
2021/01/14 02:07:48;;;;;;;;;;;3.10;99.90;;;;;;5032301;28;20434;-82
2021/01/14 02:10:29;;;;;;;;;;;3.10;99.90;;;;;;5032309;28;20025;-81
2021/01/14 02:13:12;;;;;;;;;;;3.10;99.90;;;;;;5313544;23;20425;-79
2021/01/14 02:15:38;;;;;;;;;;;3.10;99.90;;;;;;5052189;28;19974;-79
2021/01/14 02:18:04;;;;;;;;;;;3.10;99.90;;;;;;5052119;28;20315;-79
2021/01/14 02:20:30;;;;;;;;;;;3.20;99.90;;;;;;5052021;28;19989;-79
2021/01/14 02:23:01;;;;;;;;;;;3.20;99.90;;;;;;5052139;28;19924;-80
2021/01/14 02:25:29;;;;;;;;;;;3.10;99.90;;;;;;5052018;28;19909;-79
2021/01/14 02:27:57;;;;;;;;;;;3.10;99.90;;;;;;5051843;28;19915;-79
2021/01/14 02:30:23;;;;;;;;;;;3.10;99.90;;;;;;5277526;22;19974;-80
2021/01/14 02:32:49;;;;;;;;;;;3.10;99.90;;;;;;5088400;28;20413;-80
2021/01/14 02:35:14;;;;;;;;;;;3.10;99.90;;;;;;5092028;28;19931;-80
2021/01/14 02:37:40;;;;;;;;;;;3.10;99.90;;;;;;5077337;28;19920;-80
2021/01/14 02:40:06;;;;;;;;;;;3.10;99.90;;;;;;5078588;28;19908;-81
2021/01/14 02:42:34;;;;;;;;;;;3.10;99.90;;;;;;5092230;28;19912;-79
2021/01/14 02:45:00;;;;;;;;;;;3.10;99.90;;;;;;5077787;28;19908;-80
2021/01/14 02:47:26;;;;;;;;;;;3.10;99.90;;;;;;5080930;28;20423;-80
2021/01/14 02:49:55;;;;;;;;;;;3.10;99.90;;;;;;5088939;28;19967;-80
2021/01/14 02:52:24;;;;;;;;;;;3.00;99.90;;;;;;5082737;28;19908;-79
2021/01/14 02:54:50;;;;;;;;;;;3.00;99.90;;;;;;5087319;28;19916;-80
2021/01/14 02:57:18;;;;;;;;;;;3.00;99.90;;;;;;5181018;22;20012;-80
2021/01/14 02:59:46;;;;;;;;;;;3.00;99.90;;;;;;5069382;28;19919;-82
2021/01/14 03:04:51;;;;;;;;;;;2.90;99.90;;;;;;5106024;22;19928;-82
2021/01/14 03:07:16;;;;;;;;;;;2.90;99.90;;;;;;5165728;22;19925;-79
2021/01/14 03:09:42;;;;;;;;;;;2.90;99.90;;;;;;5015141;28;19995;-81
2021/01/14 03:12:09;;;;;;;;;;;2.80;99.90;;;;;;5014875;28;20032;-80
2021/01/14 03:19:56;;;;;;;;;;;2.80;99.90;;;;;;5270786;22;19925;-79
2021/01/14 03:22:21;;;;;;;;;;;2.80;99.90;;;;;;5057163;28;20060;-81
2021/01/14 03:24:47;;;;;;;;;;;2.80;99.90;;;;;;5064350;28;19966;-79
2021/01/14 03:27:12;;;;;;;;;;;2.80;99.90;;;;;;5119770;22;1338283;-80
2021/01/14 03:29:38;;;;;;;;;;;2.70;99.90;;;;;;5051023;28;19935;-79
2021/01/14 03:32:03;;;;;;;;;;;2.70;99.90;;;;;;5061932;28;19917;-80
2021/01/14 03:34:29;;;;;;;;;;;2.70;99.90;;;;;;5071988;28;19963;-79
2021/01/14 03:36:58;;;;;;;;;;;2.70;99.90;;;;;;5071932;28;19967;-81
2021/01/14 03:39:24;;;;;;;;;;;2.60;99.90;;;;;;5073187;28;19954;-79
2021/01/14 03:41:50;;;;;;;;;;;2.60;99.90;;;;;;5064688;28;19916;-80
2021/01/14 03:44:18;;;;;;;;;;;2.60;99.90;;;;;;5068664;28;19962;-81
2021/01/14 03:46:44;;;;;;;;;;;2.60;99.90;;;;;;5068416;28;20348;-80
2021/01/14 03:49:10;;;;;;;;;;;2.60;99.90;;;;;;5172983;22;19925;-87
2021/01/14 03:51:38;;;;;;;;;;;2.50;99.90;;;;;;5052257;28;19908;-87
2021/01/14 03:54:04;;;;;;;;;;;2.50;99.90;;;;;;5052440;28;19908;-87
2021/01/14 03:56:34;;;;;;;;;;;2.50;99.90;;;;;;5166084;22;20414;-79
2021/01/14 04:01:35;;;;;;;;;;;2.50;99.90;;;;;;5191650;22;19925;-80
2021/01/14 04:04:01;;;;;;;;;;;2.40;99.90;;;;;;5074431;28;19920;-82
2021/01/14 04:06:32;;;;;;;;;;;2.40;99.90;;;;;;5075493;28;20004;-81
2021/01/14 04:08:57;;;;;;;;;;;2.40;99.90;;;;;;5061650;28;19908;-80
2021/01/14 04:11:23;;;;;;;;;;;2.40;99.90;;;;;;5074078;28;19908;-81
2021/01/14 04:13:51;;;;;;;;;;;2.40;99.90;;;;;;5074224;28;20440;-81
2021/01/14 04:16:16;;;;;;;;;;;2.40;99.90;;;;;;5073648;28;19920;-83
2021/01/14 04:18:42;;;;;;;;;;;2.30;99.90;;;;;;5183198;22;19945;-82
2021/01/14 04:21:07;;;;;;;;;;;2.30;99.90;;;;;;5074076;28;19966;-82
2021/01/14 04:23:33;;;;;;;;;;;2.30;99.90;;;;;;5271843;22;19932;-80
2021/01/14 04:25:58;;;;;;;;;;;2.30;99.90;;;;;;5037616;28;19923;-78
2021/01/14 04:28:24;;;;;;;;;;;2.30;99.90;;;;;;5148282;22;19974;-79
2021/01/14 04:30:49;;;;;;;;;;;2.20;99.90;;;;;;5038078;28;20305;-80
2021/01/14 04:33:18;;;;;;;;;;;2.20;99.90;;;;;;5038079;28;20309;-80
2021/01/14 04:35:44;;;;;;;;;;;2.20;99.90;;;;;;5037870;28;19916;-79
2021/01/14 04:38:09;;;;;;;;;;;2.20;99.90;;;;;;5037511;28;19913;-80
2021/01/14 04:40:37;;;;;;;;;;;2.20;99.90;;;;;;5037961;28;20442;-79
2021/01/14 04:43:05;;;;;;;;;;;2.20;99.90;;;;;;5037651;28;21073;-80
2021/01/14 04:45:31;;;;;;;;;;;2.20;99.90;;;;;;5038162;28;20047;-79
2021/01/14 04:47:57;;;;;;;;;;;2.20;99.90;;;;;;5037449;28;19909;-79
2021/01/14 04:50:26;;;;;;;;;;;2.20;99.90;;;;;;5154325;22;19998;-82
2021/01/14 04:52:54;;;;;;;;;;;2.20;99.90;;;;;;5074903;28;19916;-83
2021/01/14 04:55:25;;;;;;;;;;;2.20;99.90;;;;;;5070998;28;19913;-81
2021/01/14 04:57:52;;;;;;;;;;;2.10;99.90;;;;;;5156516;22;19929;-88
2021/01/14 05:00:18;;;;;;;;;;;2.10;99.90;;;;;;5151677;22;19913;-82
2021/01/14 05:02:57;;;;;;;;;;;2.10;99.90;;;;;;5270126;22;19934;-79
2021/01/14 05:05:23;;;;;;;;;;;2.10;99.90;;;;;;5141600;23;19932;-78
2021/01/14 05:07:59;;;;;;;;;;;2.10;99.90;;;;;;5017095;28;19964;-81
2021/01/14 05:10:27;;;;;;;;;;;2.10;99.90;;;;;;5019764;28;19909;-80
2021/01/14 05:12:54;;;;;;;;;;;2.10;99.90;;;;;;5033200;28;19909;-80
2021/01/14 05:15:23;;;;;;;;;;;2.10;99.90;;;;;;5033252;28;19913;-80
2021/01/14 05:17:48;;;;;;;;;;;2.00;99.90;;;;;;5032935;28;19978;-80
2021/01/14 05:20:14;;;;;;;;;;;2.00;99.90;;;;;;5033281;28;20361;-79
2021/01/14 05:22:40;;;;;;;;;;;2.00;99.90;;;;;;5033407;28;20306;-79
2021/01/14 05:25:07;;;;;;;;;;;2.00;99.90;;;;;;5016657;28;19932;-79
2021/01/14 05:27:36;;;;;;;;;;;1.90;99.90;;;;;;5032913;28;19909;-79
2021/01/14 05:30:03;;;;;;;;;;;1.90;99.90;;;;;;5033383;28;19917;-80
2021/01/14 05:32:47;;;;;;;;;;;1.90;99.90;;;;;;5158137;23;19959;-86
2021/01/14 05:35:15;;;;;;;;;;;1.90;99.90;;;;;;5045681;28;19917;-87
2021/01/14 05:37:42;;;;;;;;;;;1.90;99.90;;;;;;5056684;28;19913;-87
2021/01/14 05:40:11;;;;;;;;;;;1.80;99.90;;;;;;5057164;28;19908;-86
2021/01/14 05:42:41;;;;;;;;;;;1.80;99.90;;;;;;5056722;28;19947;-87
2021/01/14 05:45:20;;;;;;;;;;;1.80;99.90;;;;;;5057290;28;19908;-86
2021/01/14 05:47:46;;;;;;;;;;;1.80;99.90;;;;;;5057011;28;19915;-86
2021/01/14 05:50:14;;;;;;;;;;;1.80;99.90;;;;;;5057223;28;19908;-87
2021/01/14 05:52:41;;;;;;;;;;;1.70;99.90;;;;;;5057132;28;19908;-87
2021/01/14 05:55:10;;;;;;;;;;;1.70;99.90;;;;;;5056880;28;19913;-88
2021/01/14 05:57:38;;;;;;;;;;;1.70;99.90;;;;;;5056842;28;19951;-89
2021/01/14 06:00:08;;;;;;;;;;;1.70;99.90;;;;;;5074601;28;19922;-87
2021/01/14 06:02:33;;;;;;;;;;;1.70;99.90;;;;;;5189698;22;20328;-79
2021/01/14 06:05:02;;;;;;;;;;;1.70;99.90;;;;;;5062897;28;19943;-80
2021/01/14 06:07:38;;;;;;;;;;;1.70;99.90;;;;;;5072229;28;19909;-80
2021/01/14 06:10:03;;;;;;;;;;;1.70;99.90;;;;;;5086188;28;19915;-80
2021/01/14 06:12:30;;;;;;;;;;;1.70;99.90;;;;;;5275264;22;19928;-78
2021/01/14 06:14:56;;;;;;;;;;;1.70;99.90;;;;;;5055611;28;19912;-79
2021/01/14 06:17:31;;;;;;;;;;;1.70;99.90;;;;;;5055549;28;19945;-79
2021/01/14 06:20:05;;;;;;;;;;;1.60;99.90;;;;;;5055779;28;19962;-79
2021/01/14 06:22:30;;;;;;;;;;;1.60;99.90;;;;;;5073021;28;19962;-80
2021/01/14 06:30:08;;;;;;;;;;;1.60;99.90;;;;;;5032567;28;19925;-80
2021/01/14 06:32:37;;;;;;;;;;;1.60;99.90;;;;;;5026816;28;20379;-79
2021/01/14 06:35:06;;;;;;;;;;;1.60;99.90;;;;;;5015960;28;19924;-79
2021/01/14 06:37:38;;;;;;;;;;;1.60;99.90;;;;;;5015574;28;20408;-79
2021/01/14 06:42:52;;;;;;;;;;;1.60;99.90;;;;;;5206829;22;19935;-79
2021/01/14 06:45:20;;;;;;;;;;;1.60;99.90;;;;;;5044613;28;20330;-79
2021/01/14 06:50:23;;;;;;;;;;;1.50;99.90;;;;;;5053103;22;20153;-81
2021/01/14 06:52:52;;;;;;;;;;;1.50;99.90;;;;;;5027203;28;20391;-82
2021/01/14 06:55:19;;;;;;;;;;;1.60;99.90;;;;;;5043446;28;20015;-83
2021/01/14 06:58:11;;;;;;;;;;;1.60;99.90;;;;;;5034339;28;19909;-83
2021/01/14 07:00:39;;;;;;;;;;;1.60;99.90;;;;;;5045489;28;19913;-80
2021/01/14 07:03:13;;;;;;;;;;;1.60;99.90;;;;;;5148588;23;19972;-87
2021/01/14 07:05:59;;;;;;;;;;;1.60;99.90;;;;;;5031418;28;19910;-89
2021/01/14 07:08:32;;;;;;;;;;;1.60;99.90;;;;;;5003052;28;19914;-87
2021/01/14 07:11:02;;;;;;;;;;;1.60;99.90;;;;;;5046381;28;19959;-87
2021/01/14 07:16:04;;;;;;;;;;;1.60;99.90;;;;;;5370950;22;19931;-82
2021/01/14 07:18:30;;;;;;;;;;;1.60;99.90;;;;;;5052799;28;19908;-82
2021/01/14 07:21:01;;;;;;;;;;;1.60;99.90;;;;;;5052577;28;19912;-80
2021/01/14 07:23:27;;;;;;;;;;;1.60;99.90;;;;;;5052959;28;19927;-80
2021/01/14 07:25:54;;;;;;;;;;;1.60;99.90;;;;;;5051814;28;19912;-86
2021/01/14 07:28:22;;;;;;;;;;;1.60;99.90;;;;;;5052947;28;19909;-81
2021/01/14 07:30:47;;;;;;;;;;;1.60;99.90;;;;;;5049443;28;20027;-82
2021/01/14 07:33:13;;;;;;;;;;;1.60;99.90;;;;;;5052220;28;19995;-82
2021/01/14 07:35:45;;;;;;;;;;;1.60;99.90;;;;;;5071916;28;20401;-82
2021/01/14 07:38:12;;;;;;;;;;;1.60;99.90;;;;;;5057381;28;19912;-83
2021/01/14 07:40:38;;;;;;;;;;;1.60;99.90;;;;;;5054480;28;19935;-82
2021/01/14 07:43:05;;;;;;;;;;;1.70;99.90;;;;;;5051286;28;20302;-81
2021/01/14 07:45:31;;;;;;;;;;;1.60;99.90;;;;;;5057428;28;19915;-82
2021/01/14 07:48:16;;;;;;;;;;;1.70;99.90;;;;;;5164978;22;19983;-79
2021/01/14 07:50:49;;;;;;;;;;;1.70;99.90;;;;;;5019084;28;20000;-80
2021/01/14 07:53:14;;;;;;;;;;;1.70;99.90;;;;;;5015223;28;20272;-78
2021/01/14 07:55:40;;;;;;;;;;;1.70;99.90;;;;;;5018442;28;19917;-78
2021/01/14 07:58:05;;;;;;;;;;;1.70;99.90;;;;;;5032407;28;19916;-79
2021/01/14 08:00:32;;;;;;;;;;;1.60;99.90;;;;;;5316187;22;19928;-80
2021/01/14 08:03:06;;;;;;;;;;;1.60;99.90;;;;;;5054313;28;20003;-79
2021/01/14 08:08:30;;;;;;;;;;;1.70;99.90;;;;;;5187417;22;19947;-80
2021/01/14 08:11:07;;;;;;;;;;;1.70;99.90;;;;;;5035345;28;19916;-81
2021/01/14 08:13:53;;;;;;;;;;;1.70;99.90;;;;;;5032896;28;19912;-80
2021/01/14 08:16:37;;;;;;;;;;;1.70;99.90;;;;;;5034531;28;19923;-79
2021/01/14 08:19:14;;;;;;;;;;;1.60;99.90;;;;;;5031404;28;19921;-80
2021/01/14 08:21:41;;;;;;;;;;;1.70;99.90;;;;;;5148774;22;20024;-79
2021/01/14 08:24:06;;;;;;;;;;;1.60;99.90;;;;;;5048153;28;19949;-80
2021/01/14 08:26:50;;;;;;;;;;;1.60;99.90;;;;;;5034105;28;20387;-80
2021/01/14 08:29:27;;;;;;;;;;;1.60;99.90;;;;;;5033605;28;19944;-80
2021/01/14 08:31:52;;;;;;;;;;;1.60;99.90;;;;;;5037081;28;19988;-79
2021/01/14 08:34:19;;;;;;;;;;;1.60;99.90;;;;;;5271925;22;19970;-79
2021/01/14 08:36:45;;;;;;;;;;;1.60;99.90;;;;;;5139419;23;19940;-78
2021/01/14 08:39:10;;;;;;;;;;;1.60;99.90;;;;;;5147235;22;19901;-80
2021/01/14 08:41:36;;;;;;;;;;;1.60;99.90;;;;;;5035042;28;19924;-80
2021/01/14 08:44:03;;;;;;;;;;;1.60;99.90;;;;;;5039626;28;20271;-80
2021/01/14 08:46:40;;;;;;;;;;;1.60;99.90;;;;;;5039933;28;19913;-79
2021/01/14 08:51:41;;;;;;;;;;;1.60;99.90;;;;;;5070010;23;19925;-78
2021/01/14 08:54:07;;;;;;;;;;;1.60;99.90;;;;;;5151020;22;19925;-79
2021/01/14 08:56:35;;;;;;;;;;;1.60;99.90;;;;;;5037583;28;20015;-79
2021/01/14 08:59:10;;;;;;;;;;;1.60;99.90;;;;;;5037310;28;19951;-80
2021/01/14 09:01:36;;;;;;;;;;;1.60;99.90;;;;;;5158309;22;19928;-80
2021/01/14 09:04:04;;;;;;;;;;;1.60;99.90;;;;;;5014013;28;19949;-79
2021/01/14 09:06:34;;;;;;;;;;;1.60;99.90;;;;;;5024631;28;19967;-79
2021/01/14 09:09:02;;;;;;;;;;;1.70;99.90;;;;;;5031994;28;19918;-79
2021/01/14 09:11:28;;;;;;;;;;;1.70;99.90;;;;;;5018728;28;19909;-80
2021/01/14 09:14:01;;;;;;;;;;;1.70;99.90;;;;;;5030375;28;19916;-79
2021/01/14 09:16:30;;;;;;;;;;;1.70;99.90;;;;;;5028150;28;20300;-80
2021/01/14 09:18:55;;;;;;;;;;;1.70;99.90;;;;;;5020791;28;19959;-80
2021/01/14 09:21:21;;;;;;;;;;;1.70;99.90;;;;;;5029615;28;19959;-79
2021/01/14 09:26:31;;;;;;;;;;;1.70;99.90;;;;;;5033711;28;19925;-86
2021/01/14 09:28:59;;;;;;;;;;;1.80;99.90;;;;;;5030379;28;20003;-86
2021/01/14 09:31:28;;;;;;;;;;;1.80;99.90;;;;;;5018951;28;19913;-86
2021/01/14 09:33:56;;;;;;;;;;;1.80;99.90;;;;;;5018136;28;20344;-86
2021/01/14 09:36:24;;;;;;;;;;;1.70;99.90;;;;;;5017716;28;19924;-86
2021/01/14 09:38:57;;;;;;;;;;;1.70;99.90;;;;;;5140220;22;20291;-80
2021/01/14 09:41:26;;;;;;;;;;;1.80;99.90;;;;;;5336255;22;19950;-79
2021/01/14 09:46:23;;;;;;;;;;;1.80;99.90;;;;;;5049966;28;20386;-84
2021/01/14 09:48:49;;;;;;;;;;;1.80;99.90;;;;;;5036008;28;20437;-83
2021/01/14 09:51:15;;;;;;;;;;;1.80;99.90;;;;;;5035653;28;19908;-81
2021/01/14 09:53:41;;;;;;;;;;;1.80;99.90;;;;;;5035971;28;19912;-80
2021/01/14 09:56:12;;;;;;;;;;;1.90;99.90;;;;;;5035615;28;20390;-80
2021/01/14 09:58:41;;;;;;;;;;;1.90;99.90;;;;;;5136642;23;20028;-80
2021/01/14 10:01:11;;;;;;;;;;;1.90;99.90;;;;;;5016006;28;19924;-79
2021/01/14 10:03:37;;;;;;;;;;;1.90;99.90;;;;;;5016217;28;19914;-80
2021/01/14 10:06:03;;;;;;;;;;;1.90;99.90;;;;;;5016207;28;20459;-80
2021/01/14 10:08:30;;;;;;;;;;;1.90;99.90;;;;;;5016335;28;19909;-79
2021/01/14 10:10:56;;;;;;;;;;;1.90;99.90;;;;;;5015847;28;20000;-79
2021/01/14 10:13:21;;;;;;;;;;;1.90;99.90;;;;;;5016192;28;20434;-80
2021/01/14 10:15:47;;;;;;;;;;;2.00;99.90;;;;;;5015968;28;19964;-79
2021/01/14 10:18:23;;;;;;;;;;;2.00;99.90;;;;;;5135429;23;21512;-79
2021/01/14 10:20:48;;;;;;;;;;;2.00;99.90;;;;;;5061734;28;19912;-79
2021/01/14 10:23:22;;;;;;;;;;;2.00;99.90;;;;;;5075164;28;19908;-79
2021/01/14 10:26:12;;;;;;;;;;;2.00;99.90;;;;;;5056770;28;19939;-80
2021/01/14 10:28:44;;;;;;;;;;;2.00;99.90;;;;;;5039082;28;20291;-79
2021/01/14 10:31:30;;;;;;;;;;;2.00;99.90;;;;;;5048003;28;19920;-80
2021/01/14 10:33:55;;;;;;;;;;;2.00;99.90;;;;;;5052120;28;19916;-79
2021/01/14 10:36:24;;;;;;;;;;;2.10;99.90;;;;;;5068899;28;19950;-80
2021/01/14 10:38:53;;;;;;;;;;;2.10;99.90;;;;;;5050701;28;20321;-78
2021/01/14 10:41:26;;;;;;;;;;;2.10;99.90;;;;;;5038893;28;20405;-81
2021/01/14 12:14:18;;;;;;;;;;;2.50;99.90;;;;;;5054078;22;20070;-81
2021/01/14 12:16:44;;;;;;;;;;;2.50;99.90;;;;;;5028171;28;20016;-80
2021/01/14 12:19:09;;;;;;;;;;;2.50;99.90;;;;;;5034775;28;20074;-81
2021/01/14 12:21:35;;;;;;;;;;;2.50;99.90;;;;;;5041933;28;19981;-80
2021/01/14 12:24:00;;;;;;;;;;;2.50;99.90;;;;;;5052832;28;19912;-80
2021/01/14 12:26:26;;;;;;;;;;;2.50;99.90;;;;;;5033918;28;19913;-81
2021/01/14 12:28:51;;;;;;;;;;;2.50;99.90;;;;;;5034721;28;19919;-79
2021/01/14 12:31:17;;;;;;;;;;;2.40;99.90;;;;;;5025850;28;20284;-81
2021/01/14 12:33:43;;;;;;;;;;;2.40;99.90;;;;;;5034593;28;19913;-81
2021/01/14 12:36:08;;;;;;;;;;;2.40;99.90;;;;;;5033188;28;19929;-80
2021/01/14 12:38:34;;;;;;;;;;;2.40;99.90;;;;;;5052159;28;20459;-81
2021/01/14 12:40:59;;;;;;;;;;;2.40;99.90;;;;;;5031381;28;20358;-80
2021/01/14 12:43:25;;;;;;;;;;;2.50;99.90;;;;;;5033438;28;20020;-82
2021/01/14 12:45:51;;;;;;;;;;;2.50;99.90;;;;;;5034153;28;19916;-80
2021/01/14 12:48:20;;;;;;;;;;;2.50;99.90;;;;;;5128040;22;20024;-80
2021/01/14 12:50:45;;;;;;;;;;;2.40;99.90;;;;;;5027656;28;19913;-80
2021/01/14 12:53:11;;;;;;;;;;;2.40;99.90;;;;;;5011235;28;19944;-79
2021/01/14 12:55:39;;;;;;;;;;;2.40;99.90;;;;;;5002576;28;20363;-79
2021/01/14 12:58:05;;;;;;;;;;;2.40;99.90;;;;;;5003820;28;19917;-81
2021/01/14 13:00:30;;;;;;;;;;;2.40;99.90;;;;;;5023018;28;19971;-81
2021/01/14 13:02:56;;;;;;;;;;;2.40;99.90;;;;;;4998918;28;19914;-80
2021/01/14 13:05:22;;;;;;;;;;;2.50;99.90;;;;;;5009758;28;19920;-79
2021/01/14 13:07:47;;;;;;;;;;;2.40;99.90;;;;;;5012599;28;20339;-81
2021/01/14 13:10:13;;;;;;;;;;;2.40;99.90;;;;;;5008415;28;19962;-80
2021/01/14 13:12:38;;;;;;;;;;;2.40;99.90;;;;;;4998560;28;19920;-79
2021/01/14 13:15:04;;;;;;;;;;;2.40;99.90;;;;;;5011327;28;20227;-79
2021/01/14 13:17:30;;;;;;;;;;;2.40;99.90;;;;;;5001307;28;19920;-81
2021/01/14 13:19:56;;;;;;;;;;;2.40;99.90;;;;;;5003620;28;20358;-79
2021/01/14 13:22:24;;;;;;;;;;;2.40;99.90;;;;;;5009146;28;19916;-79
2021/01/14 13:24:49;;;;;;;;;;;2.40;99.90;;;;;;5005723;28;19924;-80
2021/01/14 13:27:17;;;;;;;;;;;2.40;99.90;;;;;;5007544;28;19913;-80
2021/01/14 13:29:45;;;;;;;;;;;2.40;99.90;;;;;;5005583;28;20351;-79
2021/01/14 13:32:10;;;;;;;;;;;2.40;99.90;;;;;;5004576;28;19913;-80
2021/01/14 13:34:36;;;;;;;;;;;2.40;99.90;;;;;;5004674;28;19925;-80
2021/01/14 13:37:06;;;;;;;;;;;2.40;99.90;;;;;;5009430;28;19920;-79
2021/01/14 13:39:34;;;;;;;;;;;2.40;99.90;;;;;;5006189;28;20280;-79
2021/01/14 13:42:00;;;;;;;;;;;2.40;99.90;;;;;;5010854;28;20360;-80
2021/01/14 13:44:27;;;;;;;;;;;2.40;99.90;;;;;;4999751;28;19925;-79
2021/01/14 13:46:55;;;;;;;;;;;2.40;99.90;;;;;;5008956;28;19958;-79
2021/01/14 13:49:22;;;;;;;;;;;2.40;99.90;;;;;;5031124;28;19939;-80
2021/01/14 13:51:50;;;;;;;;;;;2.50;99.90;;;;;;5027996;28;19917;-79
2021/01/14 13:54:16;;;;;;;;;;;2.40;99.90;;;;;;5027048;28;20257;-79
2021/01/14 13:56:46;;;;;;;;;;;2.40;99.90;;;;;;5024479;28;19917;-80
2021/01/14 13:59:12;;;;;;;;;;;2.40;99.90;;;;;;5013599;28;20364;-79
2021/01/14 14:01:40;;;;;;;;;;;2.40;99.90;;;;;;5015680;28;19917;-79
2021/01/14 14:04:05;;;;;;;;;;;2.50;99.90;;;;;;5013339;28;19913;-79
2021/01/14 14:06:32;;;;;;;;;;;2.40;99.90;;;;;;5021000;28;19920;-80
2021/01/14 14:08:58;;;;;;;;;;;2.40;99.90;;;;;;5020345;28;19913;-79
2021/01/14 14:11:24;;;;;;;;;;;2.40;99.90;;;;;;5019403;28;19909;-79
2021/01/14 14:13:50;;;;;;;;;;;2.40;99.90;;;;;;5018541;28;19913;-79
2021/01/14 14:16:16;;;;;;;;;;;2.40;99.90;;;;;;5026227;28;20425;-79
2021/01/14 14:18:42;;;;;;;;;;;2.30;99.90;;;;;;5019528;28;20000;-79
2021/01/14 14:21:08;;;;;;;;;;;2.30;99.90;;;;;;5008416;28;20014;-80
2021/01/14 14:23:33;;;;;;;;;;;2.30;99.90;;;;;;5009101;28;20407;-80
2021/01/14 14:26:01;;;;;;;;;;;2.30;99.90;;;;;;5012486;28;19920;-80
2021/01/14 14:28:27;;;;;;;;;;;2.30;99.90;;;;;;5012647;28;19944;-79
2021/01/14 14:30:53;;;;;;;;;;;2.30;99.90;;;;;;5012254;28;20371;-79
2021/01/14 14:33:20;;;;;;;;;;;2.30;99.90;;;;;;5012339;28;19909;-81
2021/01/14 14:35:46;;;;;;;;;;;2.30;99.90;;;;;;5018647;28;19925;-79
2021/01/14 14:38:12;;;;;;;;;;;2.30;99.90;;;;;;5022162;28;19920;-79
2021/01/14 14:40:38;;;;;;;;;;;2.30;99.90;;;;;;5022802;28;19952;-79
2021/01/14 14:43:07;;;;;;;;;;;2.30;99.90;;;;;;5022457;28;19956;-79
2021/01/14 14:45:33;;;;;;;;;;;2.30;99.90;;;;;;5014376;28;19909;-80
2021/01/14 16:57:24;;;;;;;;;;;1.60;99.90;;;;;;5005196;28;19937;-80
2021/01/14 16:59:50;;;;;;;;;;;1.60;99.90;;;;;;4994552;28;20277;-78
2021/01/14 17:02:16;;;;;;;;;;;1.60;99.90;;;;;;4993827;28;19913;-78
2021/01/14 17:04:42;;;;;;;;;;;1.60;99.90;;;;;;4992486;28;20012;-82
2021/01/14 17:07:07;;;;;;;;;;;1.60;99.90;;;;;;4993718;28;20000;-80
2021/01/14 17:09:37;;;;;;;;;;;1.60;99.90;;;;;;4992670;28;19920;-81
2021/01/14 17:12:06;;;;;;;;;;;1.50;99.90;;;;;;5001982;28;20318;-83
2021/01/14 17:14:34;;;;;;;;;;;1.50;99.90;;;;;;4991151;28;20320;-81
2021/01/14 17:17:00;;;;;;;;;;;1.50;99.90;;;;;;4980706;28;19921;-80
2021/01/14 17:19:28;;;;;;;;;;;1.50;99.90;;;;;;4991158;28;19953;-83
2021/01/14 17:21:54;;;;;;;;;;;1.50;99.90;;;;;;5118623;22;19941;-83
2021/01/14 17:24:19;;;;;;;;;;;1.50;99.90;;;;;;5134167;22;19941;-81
2021/01/14 17:26:45;;;;;;;;;;;1.40;99.90;;;;;;5019820;28;20267;-81
2021/01/14 17:29:11;;;;;;;;;;;1.40;99.90;;;;;;5020213;28;19913;-79
2021/01/14 17:31:36;;;;;;;;;;;1.50;99.90;;;;;;5033757;28;20352;-80
2021/01/14 17:36:43;;;;;;;;;;;1.50;99.90;;;;;;5085464;22;19968;-78
2021/01/14 17:39:11;;;;;;;;;;;1.40;99.90;;;;;;5049788;28;19947;-79
2021/01/14 17:41:38;;;;;;;;;;;1.40;99.90;;;;;;5048101;28;19924;-79
2021/01/14 17:44:04;;;;;;;;;;;1.40;99.90;;;;;;5048839;28;20342;-80
2021/01/14 17:46:32;;;;;;;;;;;1.40;99.90;;;;;;5047855;28;19909;-78
2021/01/14 17:48:57;;;;;;;;;;;1.40;99.90;;;;;;5046455;28;20303;-80
2021/01/14 17:51:23;;;;;;;;;;;1.40;99.90;;;;;;5049541;28;19917;-80
2021/01/14 17:53:49;;;;;;;;;;;1.40;99.90;;;;;;5048574;28;20385;-79
2021/01/14 17:56:24;;;;;;;;;;;1.40;99.90;;;;;;5045084;28;19978;-80
2021/01/14 17:58:50;;;;;;;;;;;1.30;99.90;;;;;;5063236;28;19913;-80
2021/01/14 18:01:21;;;;;;;;;;;1.30;99.90;;;;;;5039252;28;19920;-82
2021/01/14 18:03:49;;;;;;;;;;;1.30;99.90;;;;;;5048049;28;20271;-79
2021/01/14 18:06:21;;;;;;;;;;;1.30;99.90;;;;;;5047342;28;20404;-81
2021/01/14 18:08:47;;;;;;;;;;;1.30;99.90;;;;;;5066450;28;19920;-81
2021/01/14 18:11:12;;;;;;;;;;;1.30;99.90;;;;;;5047361;28;20166;-82
2021/01/14 18:13:38;;;;;;;;;;;1.20;99.90;;;;;;5043813;28;20363;-80
2021/01/14 18:18:39;;;;;;;;;;;1.20;99.90;;;;;;5101814;22;19936;-79
2021/01/14 18:21:05;;;;;;;;;;;1.20;99.90;;;;;;5067856;28;20544;-80
2021/01/14 18:26:06;;;;;;;;;;;1.20;99.90;;;;;;5050691;22;19928;-79
2021/01/14 18:28:32;;;;;;;;;;;1.20;99.90;;;;;;5032767;28;20038;-79
2021/01/14 18:30:59;;;;;;;;;;;1.20;99.90;;;;;;5031519;28;19952;-81
2021/01/14 18:33:25;;;;;;;;;;;1.20;99.90;;;;;;5050843;28;19909;-80
2021/01/14 18:35:50;;;;;;;;;;;1.10;99.90;;;;;;5032597;28;19947;-78
2021/01/14 18:38:16;;;;;;;;;;;1.10;99.90;;;;;;5032345;28;19920;-80
2021/01/14 18:40:42;;;;;;;;;;;1.10;99.90;;;;;;5020846;28;20012;-80
2021/01/14 18:43:08;;;;;;;;;;;1.10;99.90;;;;;;5029249;28;19920;-80
2021/01/14 18:45:34;;;;;;;;;;;1.10;99.90;;;;;;5033011;28;20314;-80
2021/01/14 18:47:59;;;;;;;;;;;1.10;99.90;;;;;;5264737;22;19928;-79
2021/01/14 18:50:29;;;;;;;;;;;1.10;99.90;;;;;;5166219;22;20680;-88
2021/01/14 18:52:54;;;;;;;;;;;1.10;99.90;;;;;;5013102;28;20027;-90
2021/01/14 18:55:20;;;;;;;;;;;1.10;99.90;;;;;;5030456;28;20023;-90
2021/01/14 18:57:46;;;;;;;;;;;1.10;99.90;;;;;;5012682;28;20308;-89
2021/01/14 19:00:12;;;;;;;;;;;1.10;99.90;;;;;;4999012;28;19917;-89
2021/01/14 19:02:42;;;;;;;;;;;1.00;99.90;;;;;;5012709;28;19977;-88